sensor_id;sensor_type;location;lat;lon;timestamp;P1;durP1;ratioP1;P2;durP2;ratioP2
39218;SDS011;24934;52.752;6.964;2023-07-20T00:00:48;7.03;;;6.53;;
39218;SDS011;24934;52.752;6.964;2023-07-20T00:03:18;7.10;;;6.53;;
39218;SDS011;24934;52.752;6.964;2023-07-20T00:05:48;6.80;;;6.30;;
39218;SDS011;24934;52.752;6.964;2023-07-20T00:08:14;7.35;;;6.68;;
39218;SDS011;24934;52.752;6.964;2023-07-20T00:10:41;7.20;;;6.70;;
39218;SDS011;24934;52.752;6.964;2023-07-20T00:13:07;7.05;;;6.55;;
39218;SDS011;24934;52.752;6.964;2023-07-20T00:15:32;6.80;;;6.15;;
39218;SDS011;24934;52.752;6.964;2023-07-20T00:17:58;6.90;;;6.40;;
39218;SDS011;24934;52.752;6.964;2023-07-20T00:20:24;7.28;;;6.68;;
39218;SDS011;24934;52.752;6.964;2023-07-20T00:22:50;7.28;;;6.68;;
39218;SDS011;24934;52.752;6.964;2023-07-20T00:25:16;7.55;;;6.93;;
39218;SDS011;24934;52.752;6.964;2023-07-20T00:27:42;6.95;;;6.35;;
39218;SDS011;24934;52.752;6.964;2023-07-20T00:30:08;7.93;;;7.13;;
39218;SDS011;24934;52.752;6.964;2023-07-20T00:32:34;7.18;;;6.40;;
39218;SDS011;24934;52.752;6.964;2023-07-20T00:35:00;7.07;;;6.57;;
39218;SDS011;24934;52.752;6.964;2023-07-20T00:37:26;7.53;;;6.93;;
39218;SDS011;24934;52.752;6.964;2023-07-20T00:39:52;7.20;;;6.60;;
39218;SDS011;24934;52.752;6.964;2023-07-20T00:42:18;7.95;;;7.28;;
39218;SDS011;24934;52.752;6.964;2023-07-20T00:44:44;7.60;;;6.85;;
39218;SDS011;24934;52.752;6.964;2023-07-20T00:47:09;7.20;;;6.70;;
39218;SDS011;24934;52.752;6.964;2023-07-20T00:49:35;7.47;;;6.97;;
39218;SDS011;24934;52.752;6.964;2023-07-20T00:52:02;8.10;;;7.40;;
39218;SDS011;24934;52.752;6.964;2023-07-20T00:54:31;8.20;;;7.50;;
39218;SDS011;24934;52.752;6.964;2023-07-20T00:56:57;8.38;;;7.78;;
39218;SDS011;24934;52.752;6.964;2023-07-20T00:59:23;8.30;;;7.70;;
39218;SDS011;24934;52.752;6.964;2023-07-20T01:01:50;8.80;;;8.10;;
39218;SDS011;24934;52.752;6.964;2023-07-20T01:04:16;8.15;;;7.45;;
39218;SDS011;24934;52.752;6.964;2023-07-20T01:06:45;8.20;;;7.45;;
39218;SDS011;24934;52.752;6.964;2023-07-20T01:09:52;8.27;;;7.57;;
39218;SDS011;24934;52.752;6.964;2023-07-20T01:12:18;8.30;;;7.60;;
39218;SDS011;24934;52.752;6.964;2023-07-20T01:14:51;8.57;;;7.72;;
39218;SDS011;24934;52.752;6.964;2023-07-20T01:17:17;8.50;;;7.63;;
39218;SDS011;24934;52.752;6.964;2023-07-20T01:19:43;8.32;;;7.47;;
39218;SDS011;24934;52.752;6.964;2023-07-20T01:22:32;8.95;;;8.23;;
39218;SDS011;24934;52.752;6.964;2023-07-20T01:25:24;8.45;;;7.82;;
39218;SDS011;24934;52.752;6.964;2023-07-20T01:28:35;8.75;;;8.02;;
39218;SDS011;24934;52.752;6.964;2023-07-20T01:30:59;9.05;;;8.38;;
39218;SDS011;24934;52.752;6.964;2023-07-20T01:33:42;8.25;;;7.65;;
39218;SDS011;24934;52.752;6.964;2023-07-20T01:36:09;8.60;;;7.90;;
39218;SDS011;24934;52.752;6.964;2023-07-20T01:38:36;9.10;;;8.20;;
39218;SDS011;24934;52.752;6.964;2023-07-20T01:41:02;8.70;;;8.10;;
39218;SDS011;24934;52.752;6.964;2023-07-20T01:43:28;8.25;;;7.43;;
39218;SDS011;24934;52.752;6.964;2023-07-20T01:45:54;8.32;;;7.65;;
39218;SDS011;24934;52.752;6.964;2023-07-20T01:48:19;8.50;;;7.90;;
39218;SDS011;24934;52.752;6.964;2023-07-20T01:50:45;8.20;;;7.60;;
39218;SDS011;24934;52.752;6.964;2023-07-20T01:53:11;8.23;;;7.70;;
39218;SDS011;24934;52.752;6.964;2023-07-20T01:55:36;8.52;;;7.82;;
39218;SDS011;24934;52.752;6.964;2023-07-20T01:58:02;8.77;;;7.97;;
39218;SDS011;24934;52.752;6.964;2023-07-20T02:00:28;8.13;;;7.50;;
39218;SDS011;24934;52.752;6.964;2023-07-20T02:02:54;8.35;;;7.63;;
39218;SDS011;24934;52.752;6.964;2023-07-20T02:05:20;8.15;;;7.55;;
39218;SDS011;24934;52.752;6.964;2023-07-20T02:07:45;7.65;;;7.13;;
39218;SDS011;24934;52.752;6.964;2023-07-20T02:10:11;7.70;;;7.10;;
39218;SDS011;24934;52.752;6.964;2023-07-20T02:12:37;7.95;;;7.20;;
39218;SDS011;24934;52.752;6.964;2023-07-20T02:15:02;7.78;;;7.28;;
39218;SDS011;24934;52.752;6.964;2023-07-20T02:17:30;7.72;;;7.22;;
39218;SDS011;24934;52.752;6.964;2023-07-20T02:19:55;7.95;;;7.35;;
39218;SDS011;24934;52.752;6.964;2023-07-20T02:22:22;8.15;;;7.47;;
39218;SDS011;24934;52.752;6.964;2023-07-20T02:24:48;8.55;;;7.82;;
39218;SDS011;24934;52.752;6.964;2023-07-20T02:27:15;8.98;;;8.27;;
39218;SDS011;24934;52.752;6.964;2023-07-20T02:29:41;9.02;;;8.23;;
39218;SDS011;24934;52.752;6.964;2023-07-20T02:32:07;9.45;;;8.60;;
39218;SDS011;24934;52.752;6.964;2023-07-20T02:34:34;10.05;;;9.15;;
39218;SDS011;24934;52.752;6.964;2023-07-20T02:37:00;10.52;;;9.55;;
39218;SDS011;24934;52.752;6.964;2023-07-20T02:39:27;10.30;;;9.40;;
39218;SDS011;24934;52.752;6.964;2023-07-20T02:41:53;10.50;;;9.60;;
39218;SDS011;24934;52.752;6.964;2023-07-20T02:44:19;10.38;;;9.48;;
39218;SDS011;24934;52.752;6.964;2023-07-20T02:46:45;11.10;;;10.20;;
39218;SDS011;24934;52.752;6.964;2023-07-20T02:49:10;11.15;;;10.15;;
39218;SDS011;24934;52.752;6.964;2023-07-20T02:51:36;11.18;;;10.15;;
39218;SDS011;24934;52.752;6.964;2023-07-20T02:54:02;12.10;;;10.90;;
39218;SDS011;24934;52.752;6.964;2023-07-20T02:56:28;12.40;;;11.40;;
39218;SDS011;24934;52.752;6.964;2023-07-20T02:58:54;11.77;;;10.77;;
39218;SDS011;24934;52.752;6.964;2023-07-20T03:01:20;12.45;;;11.35;;
39218;SDS011;24934;52.752;6.964;2023-07-20T03:03:46;12.90;;;11.70;;
39218;SDS011;24934;52.752;6.964;2023-07-20T03:06:14;14.73;;;13.25;;
39218;SDS011;24934;52.752;6.964;2023-07-20T03:08:44;15.50;;;14.10;;
39218;SDS011;24934;52.752;6.964;2023-07-20T03:11:12;17.08;;;15.48;;
39218;SDS011;24934;52.752;6.964;2023-07-20T03:13:40;16.55;;;15.05;;
39218;SDS011;24934;52.752;6.964;2023-07-20T03:16:06;17.70;;;16.10;;
39218;SDS011;24934;52.752;6.964;2023-07-20T03:18:36;18.13;;;16.33;;
39218;SDS011;24934;52.752;6.964;2023-07-20T03:21:03;17.83;;;15.93;;
39218;SDS011;24934;52.752;6.964;2023-07-20T03:23:29;17.23;;;15.43;;
39218;SDS011;24934;52.752;6.964;2023-07-20T03:25:55;17.77;;;16.08;;
39218;SDS011;24934;52.752;6.964;2023-07-20T03:28:21;19.63;;;17.67;;
39218;SDS011;24934;52.752;6.964;2023-07-20T03:30:46;21.75;;;17.52;;
39218;SDS011;24934;52.752;6.964;2023-07-20T03:33:19;18.95;;;16.95;;
39218;SDS011;24934;52.752;6.964;2023-07-20T03:35:45;18.33;;;16.52;;
39218;SDS011;24934;52.752;6.964;2023-07-20T03:38:10;20.02;;;18.02;;
39218;SDS011;24934;52.752;6.964;2023-07-20T03:40:36;18.77;;;16.60;;
39218;SDS011;24934;52.752;6.964;2023-07-20T03:43:02;19.45;;;17.52;;
39218;SDS011;24934;52.752;6.964;2023-07-20T03:45:28;19.30;;;17.30;;
39218;SDS011;24934;52.752;6.964;2023-07-20T03:47:53;22.88;;;18.00;;
39218;SDS011;24934;52.752;6.964;2023-07-20T03:50:19;19.42;;;17.52;;
39218;SDS011;24934;52.752;6.964;2023-07-20T03:52:45;19.65;;;17.65;;
39218;SDS011;24934;52.752;6.964;2023-07-20T03:55:10;19.75;;;17.75;;
39218;SDS011;24934;52.752;6.964;2023-07-20T03:57:36;21.35;;;18.67;;
39218;SDS011;24934;52.752;6.964;2023-07-20T04:00:02;20.98;;;18.88;;
39218;SDS011;24934;52.752;6.964;2023-07-20T04:02:31;20.98;;;18.98;;
39218;SDS011;24934;52.752;6.964;2023-07-20T04:04:57;21.83;;;18.33;;
39218;SDS011;24934;52.752;6.964;2023-07-20T04:07:23;21.10;;;19.05;;
39218;SDS011;24934;52.752;6.964;2023-07-20T04:09:48;21.77;;;19.63;;
39218;SDS011;24934;52.752;6.964;2023-07-20T04:12:14;21.08;;;18.98;;
39218;SDS011;24934;52.752;6.964;2023-07-20T04:14:39;20.05;;;17.98;;
39218;SDS011;24934;52.752;6.964;2023-07-20T04:17:05;20.48;;;18.45;;
39218;SDS011;24934;52.752;6.964;2023-07-20T04:19:31;21.25;;;18.95;;
39218;SDS011;24934;52.752;6.964;2023-07-20T04:21:56;20.70;;;18.60;;
39218;SDS011;24934;52.752;6.964;2023-07-20T04:24:22;21.02;;;19.02;;
39218;SDS011;24934;52.752;6.964;2023-07-20T04:26:48;20.00;;;18.20;;
39218;SDS011;24934;52.752;6.964;2023-07-20T04:29:13;22.02;;;19.58;;
39218;SDS011;24934;52.752;6.964;2023-07-20T04:31:39;21.05;;;18.98;;
39218;SDS011;24934;52.752;6.964;2023-07-20T04:34:04;21.63;;;19.30;;
39218;SDS011;24934;52.752;6.964;2023-07-20T04:36:30;21.40;;;19.20;;
39218;SDS011;24934;52.752;6.964;2023-07-20T04:38:56;21.70;;;19.48;;
39218;SDS011;24934;52.752;6.964;2023-07-20T04:41:21;20.83;;;18.73;;
39218;SDS011;24934;52.752;6.964;2023-07-20T04:43:47;21.20;;;18.98;;
39218;SDS011;24934;52.752;6.964;2023-07-20T04:46:13;21.40;;;19.25;;
39218;SDS011;24934;52.752;6.964;2023-07-20T04:48:38;21.70;;;19.63;;
39218;SDS011;24934;52.752;6.964;2023-07-20T04:51:05;21.08;;;19.02;;
39218;SDS011;24934;52.752;6.964;2023-07-20T04:53:31;20.38;;;18.52;;
39218;SDS011;24934;52.752;6.964;2023-07-20T04:55:57;20.88;;;18.88;;
39218;SDS011;24934;52.752;6.964;2023-07-20T04:58:22;20.85;;;18.60;;
39218;SDS011;24934;52.752;6.964;2023-07-20T05:00:51;19.05;;;17.13;;
39218;SDS011;24934;52.752;6.964;2023-07-20T05:03:17;18.13;;;16.42;;
39218;SDS011;24934;52.752;6.964;2023-07-20T05:05:43;17.20;;;15.73;;
39218;SDS011;24934;52.752;6.964;2023-07-20T05:08:09;16.70;;;15.10;;
39218;SDS011;24934;52.752;6.964;2023-07-20T05:10:34;16.33;;;15.02;;
39218;SDS011;24934;52.752;6.964;2023-07-20T05:13:00;15.32;;;13.98;;
39218;SDS011;24934;52.752;6.964;2023-07-20T05:15:26;15.88;;;14.50;;
39218;SDS011;24934;52.752;6.964;2023-07-20T05:17:51;16.73;;;15.13;;
39218;SDS011;24934;52.752;6.964;2023-07-20T05:20:20;15.35;;;13.65;;
39218;SDS011;24934;52.752;6.964;2023-07-20T05:22:46;14.75;;;13.25;;
39218;SDS011;24934;52.752;6.964;2023-07-20T05:25:11;14.32;;;13.02;;
39218;SDS011;24934;52.752;6.964;2023-07-20T05:27:37;14.80;;;13.27;;
39218;SDS011;24934;52.752;6.964;2023-07-20T05:30:04;14.48;;;13.07;;
39218;SDS011;24934;52.752;6.964;2023-07-20T05:32:30;14.27;;;13.15;;
39218;SDS011;24934;52.752;6.964;2023-07-20T05:34:56;13.48;;;12.27;;
39218;SDS011;24934;52.752;6.964;2023-07-20T05:37:22;12.95;;;11.95;;
39218;SDS011;24934;52.752;6.964;2023-07-20T05:39:47;12.00;;;11.05;;
39218;SDS011;24934;52.752;6.964;2023-07-20T05:42:13;12.10;;;10.95;;
39218;SDS011;24934;52.752;6.964;2023-07-20T05:44:39;11.23;;;10.40;;
39218;SDS011;24934;52.752;6.964;2023-07-20T05:47:05;11.35;;;10.30;;
39218;SDS011;24934;52.752;6.964;2023-07-20T05:49:31;11.98;;;10.80;;
39218;SDS011;24934;52.752;6.964;2023-07-20T05:51:57;11.30;;;10.40;;
39218;SDS011;24934;52.752;6.964;2023-07-20T05:54:26;11.52;;;10.63;;
39218;SDS011;24934;52.752;6.964;2023-07-20T05:56:52;12.18;;;11.15;;
39218;SDS011;24934;52.752;6.964;2023-07-20T05:59:18;11.95;;;10.93;;
39218;SDS011;24934;52.752;6.964;2023-07-20T06:01:44;11.57;;;10.60;;
39218;SDS011;24934;52.752;6.964;2023-07-20T06:04:12;10.65;;;9.75;;
39218;SDS011;24934;52.752;6.964;2023-07-20T06:06:37;10.13;;;9.43;;
39218;SDS011;24934;52.752;6.964;2023-07-20T06:09:03;10.15;;;9.30;;
39218;SDS011;24934;52.752;6.964;2023-07-20T06:11:30;10.40;;;9.57;;
39218;SDS011;24934;52.752;6.964;2023-07-20T06:13:56;9.27;;;8.57;;
39218;SDS011;24934;52.752;6.964;2023-07-20T06:16:22;9.80;;;8.98;;
39218;SDS011;24934;52.752;6.964;2023-07-20T06:18:48;11.73;;;9.02;;
39218;SDS011;24934;52.752;6.964;2023-07-20T06:21:13;9.55;;;8.55;;
39218;SDS011;24934;52.752;6.964;2023-07-20T06:23:39;9.27;;;8.48;;
39218;SDS011;24934;52.752;6.964;2023-07-20T06:26:06;8.57;;;7.97;;
39218;SDS011;24934;52.752;6.964;2023-07-20T06:28:32;9.00;;;8.40;;
39218;SDS011;24934;52.752;6.964;2023-07-20T06:31:01;9.40;;;8.80;;
39218;SDS011;24934;52.752;6.964;2023-07-20T06:33:31;9.02;;;8.35;;
39218;SDS011;24934;52.752;6.964;2023-07-20T06:35:57;10.23;;;8.98;;
39218;SDS011;24934;52.752;6.964;2023-07-20T06:38:23;9.57;;;8.73;;
39218;SDS011;24934;52.752;6.964;2023-07-20T06:40:49;9.25;;;8.45;;
39218;SDS011;24934;52.752;6.964;2023-07-20T06:43:16;9.43;;;8.52;;
39218;SDS011;24934;52.752;6.964;2023-07-20T06:45:41;9.13;;;8.43;;
39218;SDS011;24934;52.752;6.964;2023-07-20T06:48:07;8.65;;;8.05;;
39218;SDS011;24934;52.752;6.964;2023-07-20T06:50:33;9.05;;;8.38;;
39218;SDS011;24934;52.752;6.964;2023-07-20T06:52:59;8.55;;;7.95;;
39218;SDS011;24934;52.752;6.964;2023-07-20T06:55:25;9.07;;;8.27;;
39218;SDS011;24934;52.752;6.964;2023-07-20T06:57:51;9.10;;;8.40;;
39218;SDS011;24934;52.752;6.964;2023-07-20T07:00:17;8.52;;;7.93;;
39218;SDS011;24934;52.752;6.964;2023-07-20T07:02:43;8.10;;;7.40;;
39218;SDS011;24934;52.752;6.964;2023-07-20T07:05:08;8.00;;;7.40;;
39218;SDS011;24934;52.752;6.964;2023-07-20T07:07:34;9.13;;;8.02;;
39218;SDS011;24934;52.752;6.964;2023-07-20T07:10:00;9.88;;;9.10;;
39218;SDS011;24934;52.752;6.964;2023-07-20T07:12:29;8.38;;;7.57;;
39218;SDS011;24934;52.752;6.964;2023-07-20T07:14:55;8.90;;;8.20;;
39218;SDS011;24934;52.752;6.964;2023-07-20T07:17:21;8.40;;;7.70;;
39218;SDS011;24934;52.752;6.964;2023-07-20T07:19:46;9.57;;;7.97;;
39218;SDS011;24934;52.752;6.964;2023-07-20T07:22:12;8.18;;;7.57;;
39218;SDS011;24934;52.752;6.964;2023-07-20T07:24:38;8.13;;;7.43;;
39218;SDS011;24934;52.752;6.964;2023-07-20T07:27:06;7.65;;;7.05;;
39218;SDS011;24934;52.752;6.964;2023-07-20T07:29:33;8.40;;;7.80;;
39218;SDS011;24934;52.752;6.964;2023-07-20T07:31:59;9.10;;;8.20;;
39218;SDS011;24934;52.752;6.964;2023-07-20T07:34:24;8.05;;;6.90;;
39218;SDS011;24934;52.752;6.964;2023-07-20T07:36:51;7.60;;;6.90;;
39218;SDS011;24934;52.752;6.964;2023-07-20T07:39:16;7.50;;;6.90;;
39218;SDS011;24934;52.752;6.964;2023-07-20T07:41:42;7.95;;;7.32;;
39218;SDS011;24934;52.752;6.964;2023-07-20T07:44:08;8.90;;;8.20;;
39218;SDS011;24934;52.752;6.964;2023-07-20T07:46:33;8.30;;;7.35;;
39218;SDS011;24934;52.752;6.964;2023-07-20T07:48:59;6.85;;;6.32;;
39218;SDS011;24934;52.752;6.964;2023-07-20T07:51:25;7.85;;;7.15;;
39218;SDS011;24934;52.752;6.964;2023-07-20T07:53:52;8.45;;;7.75;;
39218;SDS011;24934;52.752;6.964;2023-07-20T07:56:18;8.57;;;7.72;;
39218;SDS011;24934;52.752;6.964;2023-07-20T07:58:48;9.13;;;8.00;;
39218;SDS011;24934;52.752;6.964;2023-07-20T08:01:14;8.43;;;7.82;;
39218;SDS011;24934;52.752;6.964;2023-07-20T08:03:40;7.82;;;7.13;;
39218;SDS011;24934;52.752;6.964;2023-07-20T08:06:08;7.57;;;6.85;;
39218;SDS011;24934;52.752;6.964;2023-07-20T08:08:33;7.47;;;6.78;;
39218;SDS011;24934;52.752;6.964;2023-07-20T08:11:01;8.60;;;8.00;;
39218;SDS011;24934;52.752;6.964;2023-07-20T08:13:27;7.65;;;7.03;;
39218;SDS011;24934;52.752;6.964;2023-07-20T08:15:52;7.97;;;6.90;;
39218;SDS011;24934;52.752;6.964;2023-07-20T08:18:18;6.80;;;6.30;;
39218;SDS011;24934;52.752;6.964;2023-07-20T08:20:44;8.18;;;7.38;;
39218;SDS011;24934;52.752;6.964;2023-07-20T08:23:10;8.20;;;7.68;;
39218;SDS011;24934;52.752;6.964;2023-07-20T08:25:36;8.63;;;7.75;;
39218;SDS011;24934;52.752;6.964;2023-07-20T08:28:04;8.93;;;8.18;;
39218;SDS011;24934;52.752;6.964;2023-07-20T08:30:39;7.10;;;6.50;;
39218;SDS011;24934;52.752;6.964;2023-07-20T08:33:10;7.53;;;6.90;;
39218;SDS011;24934;52.752;6.964;2023-07-20T08:35:37;6.40;;;5.90;;
39218;SDS011;24934;52.752;6.964;2023-07-20T08:38:03;6.32;;;5.82;;
39218;SDS011;24934;52.752;6.964;2023-07-20T08:40:30;8.27;;;7.47;;
39218;SDS011;24934;52.752;6.964;2023-07-20T08:42:57;7.53;;;7.03;;
39218;SDS011;24934;52.752;6.964;2023-07-20T08:45:25;7.60;;;7.00;;
39218;SDS011;24934;52.752;6.964;2023-07-20T08:47:56;8.02;;;7.45;;
39218;SDS011;24934;52.752;6.964;2023-07-20T08:50:23;7.50;;;7.00;;
39218;SDS011;24934;52.752;6.964;2023-07-20T08:52:51;5.10;;;4.60;;
39218;SDS011;24934;52.752;6.964;2023-07-20T08:55:18;7.25;;;6.70;;
39218;SDS011;24934;52.752;6.964;2023-07-20T08:57:49;8.52;;;7.80;;
39218;SDS011;24934;52.752;6.964;2023-07-20T09:00:17;8.60;;;8.00;;
39218;SDS011;24934;52.752;6.964;2023-07-20T09:02:45;7.18;;;6.47;;
39218;SDS011;24934;52.752;6.964;2023-07-20T09:05:14;7.47;;;6.90;;
39218;SDS011;24934;52.752;6.964;2023-07-20T09:07:40;5.28;;;4.88;;
39218;SDS011;24934;52.752;6.964;2023-07-20T09:10:06;5.82;;;5.18;;
39218;SDS011;24934;52.752;6.964;2023-07-20T09:12:35;8.10;;;7.38;;
39218;SDS011;24934;52.752;6.964;2023-07-20T09:15:03;8.43;;;7.85;;
39218;SDS011;24934;52.752;6.964;2023-07-20T09:17:30;7.60;;;7.10;;
39218;SDS011;24934;52.752;6.964;2023-07-20T09:19:56;8.25;;;7.65;;
39218;SDS011;24934;52.752;6.964;2023-07-20T09:22:27;8.65;;;7.75;;
39218;SDS011;24934;52.752;6.964;2023-07-20T09:24:55;8.50;;;7.90;;
39218;SDS011;24934;52.752;6.964;2023-07-20T09:27:21;8.40;;;7.80;;
39218;SDS011;24934;52.752;6.964;2023-07-20T09:29:50;6.90;;;6.30;;
39218;SDS011;24934;52.752;6.964;2023-07-20T09:32:20;6.93;;;6.25;;
39218;SDS011;24934;52.752;6.964;2023-07-20T09:34:46;6.20;;;5.70;;
39218;SDS011;24934;52.752;6.964;2023-07-20T09:37:19;8.00;;;7.43;;
39218;SDS011;24934;52.752;6.964;2023-07-20T09:39:48;8.25;;;7.65;;
39218;SDS011;24934;52.752;6.964;2023-07-20T09:42:17;7.00;;;6.40;;
39218;SDS011;24934;52.752;6.964;2023-07-20T09:44:44;6.90;;;6.40;;
39218;SDS011;24934;52.752;6.964;2023-07-20T09:47:10;8.20;;;7.22;;
39218;SDS011;24934;52.752;6.964;2023-07-20T09:49:39;7.85;;;7.35;;
39218;SDS011;24934;52.752;6.964;2023-07-20T09:52:06;7.68;;;7.07;;
39218;SDS011;24934;52.752;6.964;2023-07-20T09:54:38;5.90;;;5.30;;
39218;SDS011;24934;52.752;6.964;2023-07-20T09:57:07;6.32;;;5.82;;
39218;SDS011;24934;52.752;6.964;2023-07-20T09:59:34;6.10;;;5.70;;
39218;SDS011;24934;52.752;6.964;2023-07-20T10:02:00;7.35;;;6.65;;
39218;SDS011;24934;52.752;6.964;2023-07-20T10:04:29;8.10;;;7.35;;
39218;SDS011;24934;52.752;6.964;2023-07-20T10:07:01;5.88;;;5.47;;
39218;SDS011;24934;52.752;6.964;2023-07-20T10:09:30;6.53;;;6.03;;
39218;SDS011;24934;52.752;6.964;2023-07-20T10:11:57;5.97;;;5.57;;
39218;SDS011;24934;52.752;6.964;2023-07-20T10:14:24;5.60;;;5.20;;
39218;SDS011;24934;52.752;6.964;2023-07-20T10:16:58;5.90;;;5.40;;
39218;SDS011;24934;52.752;6.964;2023-07-20T10:19:39;6.20;;;5.80;;
39218;SDS011;24934;52.752;6.964;2023-07-20T10:22:14;6.68;;;6.10;;
39218;SDS011;24934;52.752;6.964;2023-07-20T10:24:45;6.22;;;5.32;;
39218;SDS011;24934;52.752;6.964;2023-07-20T10:27:11;5.35;;;4.68;;
39218;SDS011;24934;52.752;6.964;2023-07-20T10:29:37;6.00;;;5.60;;
39218;SDS011;24934;52.752;6.964;2023-07-20T10:32:04;6.03;;;5.63;;
39218;SDS011;24934;52.752;6.964;2023-07-20T10:34:30;5.38;;;4.97;;
39218;SDS011;24934;52.752;6.964;2023-07-20T10:36:57;7.88;;;5.03;;
39218;SDS011;24934;52.752;6.964;2023-07-20T10:39:23;5.20;;;4.80;;
39218;SDS011;24934;52.752;6.964;2023-07-20T10:44:31;5.38;;;4.97;;
39218;SDS011;24934;52.752;6.964;2023-07-20T10:47:00;5.40;;;5.00;;
39218;SDS011;24934;52.752;6.964;2023-07-20T10:49:27;5.47;;;5.07;;
39218;SDS011;24934;52.752;6.964;2023-07-20T10:51:57;5.20;;;4.80;;
39218;SDS011;24934;52.752;6.964;2023-07-20T10:56:50;5.78;;;5.28;;
39218;SDS011;24934;52.752;6.964;2023-07-20T11:01:54;6.57;;;5.53;;
39218;SDS011;24934;52.752;6.964;2023-07-20T11:04:37;6.20;;;5.80;;
39218;SDS011;24934;52.752;6.964;2023-07-20T11:07:03;6.70;;;5.90;;
39218;SDS011;24934;52.752;6.964;2023-07-20T11:09:33;6.15;;;5.72;;
39218;SDS011;24934;52.752;6.964;2023-07-20T11:14:41;6.07;;;5.57;;
39218;SDS011;24934;52.752;6.964;2023-07-20T11:17:19;6.85;;;5.75;;
39218;SDS011;24934;52.752;6.964;2023-07-20T11:19:50;5.97;;;5.55;;
39218;SDS011;24934;52.752;6.964;2023-07-20T11:22:21;6.20;;;5.60;;
39218;SDS011;24934;52.752;6.964;2023-07-20T11:24:47;6.05;;;5.45;;
39218;SDS011;24934;52.752;6.964;2023-07-20T11:27:14;5.65;;;5.25;;
39218;SDS011;24934;52.752;6.964;2023-07-20T11:29:40;6.03;;;5.53;;
39218;SDS011;24934;52.752;6.964;2023-07-20T11:32:06;6.20;;;5.80;;
39218;SDS011;24934;52.752;6.964;2023-07-20T11:34:35;6.53;;;6.00;;
39218;SDS011;24934;52.752;6.964;2023-07-20T11:37:05;6.07;;;5.40;;
39218;SDS011;24934;52.752;6.964;2023-07-20T11:39:31;5.72;;;5.32;;
39218;SDS011;24934;52.752;6.964;2023-07-20T11:41:57;6.30;;;5.80;;
39218;SDS011;24934;52.752;6.964;2023-07-20T11:44:24;7.43;;;5.78;;
39218;SDS011;24934;52.752;6.964;2023-07-20T11:47:03;5.72;;;5.32;;
39218;SDS011;24934;52.752;6.964;2023-07-20T11:49:30;5.18;;;4.78;;
39218;SDS011;24934;52.752;6.964;2023-07-20T11:51:59;5.20;;;4.90;;
39218;SDS011;24934;52.752;6.964;2023-07-20T11:54:25;5.40;;;4.93;;
39218;SDS011;24934;52.752;6.964;2023-07-20T11:56:54;5.00;;;4.70;;
39218;SDS011;24934;52.752;6.964;2023-07-20T11:59:22;5.32;;;4.93;;
39218;SDS011;24934;52.752;6.964;2023-07-20T12:01:48;5.20;;;4.88;;
39218;SDS011;24934;52.752;6.964;2023-07-20T12:04:14;5.18;;;4.88;;
39218;SDS011;24934;52.752;6.964;2023-07-20T12:06:40;5.50;;;5.10;;
39218;SDS011;24934;52.752;6.964;2023-07-20T12:09:05;6.20;;;5.60;;
39218;SDS011;24934;52.752;6.964;2023-07-20T12:11:38;6.22;;;5.82;;
39218;SDS011;24934;52.752;6.964;2023-07-20T12:14:06;6.18;;;5.68;;
39218;SDS011;24934;52.752;6.964;2023-07-20T12:16:33;6.35;;;5.95;;
39218;SDS011;24934;52.752;6.964;2023-07-20T12:19:03;6.00;;;5.60;;
39218;SDS011;24934;52.752;6.964;2023-07-20T12:21:50;6.80;;;6.20;;
39218;SDS011;24934;52.752;6.964;2023-07-20T12:24:22;6.43;;;5.78;;
39218;SDS011;24934;52.752;6.964;2023-07-20T12:26:47;6.32;;;5.93;;
39218;SDS011;24934;52.752;6.964;2023-07-20T12:29:13;6.80;;;6.20;;
39218;SDS011;24934;52.752;6.964;2023-07-20T12:31:39;7.50;;;6.90;;
39218;SDS011;24934;52.752;6.964;2023-07-20T12:34:04;7.80;;;7.15;;
39218;SDS011;24934;52.752;6.964;2023-07-20T12:36:30;7.15;;;6.65;;
39218;SDS011;24934;52.752;6.964;2023-07-20T12:38:56;7.72;;;7.20;;
39218;SDS011;24934;52.752;6.964;2023-07-20T12:41:23;7.28;;;6.72;;
39218;SDS011;24934;52.752;6.964;2023-07-20T12:43:48;8.18;;;7.63;;
39218;SDS011;24934;52.752;6.964;2023-07-20T12:46:15;8.35;;;7.75;;
39218;SDS011;24934;52.752;6.964;2023-07-20T12:48:40;7.97;;;7.45;;
39218;SDS011;24934;52.752;6.964;2023-07-20T12:51:10;8.43;;;7.72;;
39218;SDS011;24934;52.752;6.964;2023-07-20T12:53:36;8.65;;;8.02;;
39218;SDS011;24934;52.752;6.964;2023-07-20T12:56:02;7.78;;;7.10;;
39218;SDS011;24934;52.752;6.964;2023-07-20T12:58:28;7.90;;;7.40;;
39218;SDS011;24934;52.752;6.964;2023-07-20T13:00:54;8.10;;;7.50;;
39218;SDS011;24934;52.752;6.964;2023-07-20T13:03:20;8.48;;;7.88;;
39218;SDS011;24934;52.752;6.964;2023-07-20T13:05:46;7.32;;;6.82;;
39218;SDS011;24934;52.752;6.964;2023-07-20T13:08:12;7.18;;;6.68;;
39218;SDS011;24934;52.752;6.964;2023-07-20T13:10:38;7.18;;;6.55;;
39218;SDS011;24934;52.752;6.964;2023-07-20T13:13:04;6.93;;;6.35;;
39218;SDS011;24934;52.752;6.964;2023-07-20T13:15:31;7.55;;;6.95;;
39218;SDS011;24934;52.752;6.964;2023-07-20T13:18:05;8.10;;;7.40;;
39218;SDS011;24934;52.752;6.964;2023-07-20T13:20:30;7.22;;;6.72;;
39218;SDS011;24934;52.752;6.964;2023-07-20T13:22:56;7.55;;;6.88;;
39218;SDS011;24934;52.752;6.964;2023-07-20T13:25:22;7.53;;;6.93;;
39218;SDS011;24934;52.752;6.964;2023-07-20T13:27:50;8.20;;;7.63;;
39218;SDS011;24934;52.752;6.964;2023-07-20T13:30:16;7.85;;;7.30;;
39218;SDS011;24934;52.752;6.964;2023-07-20T13:32:45;7.28;;;6.78;;
39218;SDS011;24934;52.752;6.964;2023-07-20T13:35:13;7.10;;;6.50;;
39218;SDS011;24934;52.752;6.964;2023-07-20T13:37:39;8.15;;;7.57;;
39218;SDS011;24934;52.752;6.964;2023-07-20T13:40:06;7.70;;;7.05;;
39218;SDS011;24934;52.752;6.964;2023-07-20T13:42:38;8.30;;;7.65;;
39218;SDS011;24934;52.752;6.964;2023-07-20T13:45:05;9.40;;;8.65;;
39218;SDS011;24934;52.752;6.964;2023-07-20T13:47:31;7.93;;;7.30;;
39218;SDS011;24934;52.752;6.964;2023-07-20T13:49:57;7.30;;;6.80;;
39218;SDS011;24934;52.752;6.964;2023-07-20T13:52:22;6.68;;;6.20;;
39218;SDS011;24934;52.752;6.964;2023-07-20T13:54:48;6.20;;;5.70;;
39218;SDS011;24934;52.752;6.964;2023-07-20T13:57:14;7.20;;;6.60;;
39218;SDS011;24934;52.752;6.964;2023-07-20T13:59:43;6.60;;;6.10;;
39218;SDS011;24934;52.752;6.964;2023-07-20T14:02:09;5.40;;;5.00;;
39218;SDS011;24934;52.752;6.964;2023-07-20T14:04:35;5.00;;;4.70;;
39218;SDS011;24934;52.752;6.964;2023-07-20T14:07:01;8.68;;;5.20;;
39218;SDS011;24934;52.752;6.964;2023-07-20T14:09:27;6.32;;;5.82;;
39218;SDS011;24934;52.752;6.964;2023-07-20T14:11:52;7.28;;;6.68;;
39218;SDS011;24934;52.752;6.964;2023-07-20T14:14:18;8.18;;;7.57;;
39218;SDS011;24934;52.752;6.964;2023-07-20T14:16:44;6.57;;;6.10;;
39218;SDS011;24934;52.752;6.964;2023-07-20T14:19:09;8.75;;;8.10;;
39218;SDS011;24934;52.752;6.964;2023-07-20T14:21:35;8.93;;;8.15;;
39218;SDS011;24934;52.752;6.964;2023-07-20T14:24:01;7.63;;;7.00;;
39218;SDS011;24934;52.752;6.964;2023-07-20T14:26:27;7.80;;;7.10;;
39218;SDS011;24934;52.752;6.964;2023-07-20T14:28:52;7.53;;;6.78;;
39218;SDS011;24934;52.752;6.964;2023-07-20T14:31:18;6.93;;;6.38;;
39218;SDS011;24934;52.752;6.964;2023-07-20T14:33:44;6.10;;;5.60;;
39218;SDS011;24934;52.752;6.964;2023-07-20T14:36:10;6.40;;;5.80;;
39218;SDS011;24934;52.752;6.964;2023-07-20T14:38:36;6.78;;;6.18;;
39218;SDS011;24934;52.752;6.964;2023-07-20T14:41:02;7.63;;;6.82;;
39218;SDS011;24934;52.752;6.964;2023-07-20T14:43:27;9.00;;;6.45;;
39218;SDS011;24934;52.752;6.964;2023-07-20T14:45:53;7.68;;;7.07;;
39218;SDS011;24934;52.752;6.964;2023-07-20T14:48:22;6.45;;;5.95;;
39218;SDS011;24934;52.752;6.964;2023-07-20T14:50:47;7.10;;;6.47;;